Saturday, July 21, 2018, 10:43 PM EDT
Back to Local

KFDK, Frederick, Frederick Municipal Airport

Location: Frederick, MD, United States Lat: 39.417
Local Time: 10:43 PM EDT ( 2:43 GMT) Lon: -77.374
Time Zone: US/Eastern Elev: 301 ft

Show me the last for .
Show Decoded

2018-07-21 22:15 METAR KFDK 220215Z AUTO 02015G18KT 4SM RA SCT005 BKN050 OVC100 16/16 A2979 RMK
                 AO2 LTG DSNT E P0009 =
2018-07-21 21:55 METAR KFDK 220155Z AUTO 01013G17KT 2SM +VCTSRA BKN005 OVC015 16/16 A2980 RMK AO2
                 LTG DSNT SE P0112 =
2018-07-21 21:35 METAR KFDK 220135Z AUTO 01012G17KT 1 3/4SM +RA OVC005 17/17 A2983 RMK AO2 LTG
                 DSNT E P0061 =
2018-07-21 21:15 METAR KFDK 220115Z AUTO 36013KT 3SM +RA OVC005 17/17 A2983 RMK AO2 LTG DSNT W
                 P0014 =
2018-07-21 20:55 METAR KFDK 220055Z AUTO 01011G18KT 4SM RA OVC007 18/18 A2982 RMK AO2 P0036 =
2018-07-21 20:49 METAR KFDK 220049Z 02011G16KT 4SM RA OVC007 18/18 A2982 =
2018-07-21 19:48 METAR KFDK 212348Z 03012G18KT 2SM RA OVC007 19/19 A2983 =
2018-07-21 18:47 METAR KFDK 212247Z 03012G18KT 1SM +RA OVC005 18/18 A2984 =
2018-07-21 17:47 METAR KFDK 212147Z 03012KT 3SM RA OVC007 18/18 A2987 =
2018-07-21 16:47 METAR KFDK 212047Z 03010G15KT 3SM RA BKN009 OVC014 18/18 A2991 =
2018-07-21 15:49 METAR KFDK 211949Z 03013KT 3SM RA SCT020 BKN024 OVC039 18/18 A2992 =
2018-07-21 15:15 METAR KFDK 211915Z 04013KT 4SM -RA BKN029 OVC040 19/19 A2994 =
2018-07-21 14:50 METAR KFDK 211850Z 04010KT 2SM +RA BKN011 OVC050 19/19 A2995 =
2018-07-21 13:48 METAR KFDK 211748Z 05008KT 2SM +RA BKN007 OVC037 19/19 A2998 =
2018-07-21 12:47 METAR KFDK 211647Z 02004KT 2 1/2SM RA BKN007 BKN014 OVC055 20/20 A2999 =
2018-07-21 11:47 METAR KFDK 211547Z 10006KT 2 1/2SM RA BKN010 BKN041 OVC050 20/20 A3002 =
2018-07-21 11:12 METAR KFDK 211512Z 12009G16KT 2 1/2SM +RA BKN015 BKN032 OVC047 21/20 A3002 =
2018-07-21 10:47 METAR KFDK 211447Z 10006KT 10SM -RA BKN019 BKN031 BKN041 23/18 A3000 =
2018-07-21 09:48 METAR KFDK 211348Z 11006KT 10SM BKN019 BKN045 24/18 A3000 =
2018-07-21 08:48 METAR KFDK 211248Z 07003KT 10SM BKN017 23/18 A3001 =
2018-07-21 07:48 METAR KFDK 211148Z 09004KT 10SM BKN017 22/17 A3000 =
2018-07-21 06:57 METAR KFDK 211057Z 00000KT 10SM BKN017 BKN085 21/17 A3001 =
2018-07-21 06:45 METAR KFDK 211045Z AUTO 00000KT 10SM SCT028 BKN085 21/17 A3001 RMK AO2 =
2018-07-21 06:35 METAR KFDK 211035Z AUTO 00000KT 10SM SCT027 SCT085 21/16 A3001 RMK AO2 =
2018-07-21 06:15 METAR KFDK 211015Z AUTO 00000KT 10SM SCT025 20/16 A3002 RMK AO2 =
2018-07-21 05:55 METAR KFDK 210955Z AUTO 08003KT 10SM CLR 21/16 A3001 RMK AO2 =
2018-07-21 05:35 METAR KFDK 210935Z AUTO 00000KT 10SM CLR 21/16 A3001 RMK AO2 =
2018-07-21 05:15 METAR KFDK 210915Z AUTO 07003KT 10SM CLR 21/16 A3002 RMK AO2 =
2018-07-21 04:55 METAR KFDK 210855Z AUTO 10004KT 10SM SCT060 21/16 A3001 RMK AO2 =
2018-07-21 04:35 METAR KFDK 210835Z AUTO 00000KT 10SM BKN060 21/16 A3002 RMK AO2 =
2018-07-21 04:15 METAR KFDK 210815Z AUTO 08004KT 10SM OVC060 21/16 A3002 RMK AO2 =
2018-07-21 03:55 METAR KFDK 210755Z AUTO 08003KT 10SM OVC060 21/16 A3003 RMK AO2 =
2018-07-21 03:35 METAR KFDK 210735Z AUTO 09003KT 10SM OVC060 22/16 A3004 RMK AO2 =
2018-07-21 03:15 METAR KFDK 210715Z AUTO 10004KT 10SM OVC060 22/16 A3004 RMK AO2 =
2018-07-21 02:55 METAR KFDK 210655Z AUTO 10003KT 10SM OVC060 22/16 A3005 RMK AO2 LTG DSNT E =
2018-07-21 02:35 METAR KFDK 210635Z AUTO 00000KT 10SM OVC060 22/16 A3005 RMK AO2 =
2018-07-21 02:15 METAR KFDK 210615Z AUTO 12005KT 10SM -RA OVC060 22/16 A3005 RMK AO2 =
2018-07-21 01:55 METAR KFDK 210555Z AUTO 13003KT 10SM BKN060 OVC075 22/16 A3005 RMK AO2 =
2018-07-21 01:35 METAR KFDK 210535Z AUTO 13003KT 10SM SCT060 BKN075 22/16 A3006 RMK AO2 =
2018-07-21 01:15 METAR KFDK 210515Z AUTO 13004KT 10SM SCT065 OVC075 22/16 A3006 RMK AO2 =
2018-07-21 00:55 METAR KFDK 210455Z AUTO 14005KT 10SM OVC065 23/16 A3007 RMK AO2 LTG DSNT W =
2018-07-21 00:35 METAR KFDK 210435Z AUTO 13006KT 10SM BKN065 23/16 A3007 RMK AO2 =
2018-07-21 00:15 METAR KFDK 210415Z AUTO 12006KT 10SM BKN065 23/15 A3006 RMK AO2 LTG DSNT W =
2018-07-20 23:55 METAR KFDK 210355Z AUTO 13003KT 10SM BKN065 23/15 A3006 RMK AO2 =
2018-07-20 23:35 METAR KFDK 210335Z AUTO 12004KT 10SM SCT065 23/15 A3006 RMK AO2 LTG DSNT W =
2018-07-20 23:15 METAR KFDK 210315Z AUTO 12003KT 10SM CLR 23/15 A3006 RMK AO2 =
2018-07-20 22:55 METAR KFDK 210255Z AUTO 14005KT 10SM CLR 23/14 A3007 RMK AO2 =

Support USWX by starting your Amazon purchase here.